Time;durP1;ratioP1;P1;durP2;ratioP2;P2;SDS_P1;SDS_P2;PMS_P1;PMS_P2;Temp;Humidity;BMP_temperature;BMP_pressure;BME280_temperature;BME280_humidity;BME280_pressure;Samples;Min_cycle;Max_cycle;Signal;HPM_P1;HPM_P2
2021/04/01 00:01:50;;;;;;;10.38;6.35;;;13.30;55.20;;;;;;5034572;28;20101;-76
2021/04/01 00:04:15;;;;;;;13.57;7.50;;;13.20;55.80;;;;;;5018098;28;20040;-76
2021/04/01 00:06:41;;;;;;;12.98;6.30;;;13.20;55.50;;;;;;5036698;28;20044;-76
2021/04/01 00:09:07;;;;;;;12.25;5.47;;;13.20;55.80;;;;;;5032244;28;20131;-76
2021/04/01 00:11:33;;;;;;;9.70;5.47;;;13.10;55.70;;;;;;5045225;28;20142;-77
2021/04/01 00:14:01;;;;;;;10.43;5.82;;;13.10;55.80;;;;;;5006435;28;20052;-76
2021/04/01 00:16:27;;;;;;;10.10;6.38;;;13.00;55.90;;;;;;5005820;28;20032;-76
2021/04/01 00:18:52;;;;;;;9.43;6.78;;;13.10;56.00;;;;;;5007323;28;20110;-76
2021/04/01 00:21:18;;;;;;;9.27;6.38;;;13.10;55.70;;;;;;5010717;28;20025;-76
2021/04/01 00:23:43;;;;;;;15.68;6.97;;;13.10;55.70;;;;;;5004887;28;20033;-76
2021/04/01 00:26:09;;;;;;;8.13;6.07;;;13.00;55.60;;;;;;5045465;28;20044;-76
2021/04/01 00:28:34;;;;;;;13.80;7.00;;;13.00;56.00;;;;;;5017287;28;20044;-76
2021/04/01 00:31:01;;;;;;;19.48;7.85;;;13.00;55.70;;;;;;5018158;28;20090;-76
2021/04/01 00:33:27;;;;;;;12.18;7.40;;;13.00;55.50;;;;;;5027086;28;20071;-76
2021/04/01 00:35:52;;;;;;;13.27;6.90;;;13.00;55.60;;;;;;5029180;28;20053;-76
2021/04/01 00:38:18;;;;;;;12.18;7.85;;;12.80;56.10;;;;;;5020592;28;20530;-76
2021/04/01 00:40:43;;;;;;;10.32;6.82;;;12.70;56.60;;;;;;5032150;28;20454;-76
2021/04/01 00:43:09;;;;;;;11.40;7.65;;;12.70;56.20;;;;;;5019427;28;20039;-76
2021/04/01 00:45:34;;;;;;;9.43;5.70;;;12.70;56.20;;;;;;5015515;28;20059;-76
2021/04/01 00:48:00;;;;;;;13.75;7.13;;;12.70;56.70;;;;;;5024795;28;20048;-75
2021/04/01 00:50:27;;;;;;;19.77;8.07;;;12.70;56.40;;;;;;5030179;28;20472;-76
2021/04/01 00:52:53;;;;;;;8.98;6.20;;;12.60;56.70;;;;;;5011892;28;20033;-76
2021/04/01 00:55:18;;;;;;;11.73;7.18;;;12.50;57.30;;;;;;5030877;28;20038;-76
2021/04/01 00:57:48;;;;;;;12.13;6.85;;;12.50;56.60;;;;;;5035144;28;20520;-76
2021/04/01 01:00:15;;;;;;;13.30;7.68;;;12.60;56.30;;;;;;5030795;28;20060;-76
2021/04/01 01:02:41;;;;;;;9.95;6.70;;;12.60;56.50;;;;;;5027787;28;20098;-75
2021/04/01 01:05:08;;;;;;;16.73;8.85;;;12.60;56.50;;;;;;5005606;28;20251;-75
2021/04/01 01:07:34;;;;;;;12.18;6.82;;;12.40;57.00;;;;;;5043914;28;20413;-75
2021/04/01 01:10:00;;;;;;;11.52;7.65;;;12.40;57.10;;;;;;5022590;28;20458;-75
2021/04/01 01:12:25;;;;;;;13.07;7.18;;;12.40;57.00;;;;;;5004396;28;20108;-75
2021/04/01 01:14:51;;;;;;;18.10;7.07;;;12.50;56.80;;;;;;5010566;28;20028;-75
2021/04/01 01:17:16;;;;;;;12.55;8.02;;;12.30;56.90;;;;;;5033343;28;20452;-75
2021/04/01 01:19:50;;;;;;;17.92;7.20;;;12.20;56.80;;;;;;5010207;28;20124;-75
2021/04/01 01:22:15;;;;;;;15.93;8.90;;;12.20;57.20;;;;;;5041544;28;20507;-75
2021/04/01 01:24:41;;;;;;;11.20;7.90;;;12.00;57.90;;;;;;5037420;28;20032;-75
2021/04/01 01:27:07;;;;;;;13.80;9.85;;;11.90;58.50;;;;;;5008098;28;20046;-75
2021/04/01 01:29:32;;;;;;;18.65;9.25;;;11.90;58.80;;;;;;5045627;28;20056;-75
2021/04/01 01:31:58;;;;;;;21.73;9.65;;;11.80;59.30;;;;;;5016329;28;20037;-76
2021/04/01 01:34:23;;;;;;;15.82;7.78;;;11.60;60.30;;;;;;5036993;28;20387;-75
2021/04/01 01:36:49;;;;;;;11.70;6.70;;;11.80;59.40;;;;;;5014897;28;20119;-75
2021/04/01 01:39:15;;;;;;;12.65;7.53;;;12.00;58.40;;;;;;5023175;28;20545;-75
2021/04/01 01:41:40;;;;;;;16.27;9.30;;;12.20;57.90;;;;;;5034853;28;20099;-76
2021/04/01 01:44:06;;;;;;;22.30;8.68;;;12.10;57.60;;;;;;5037304;28;20044;-75
2021/04/01 01:46:31;;;;;;;18.75;9.10;;;11.90;58.20;;;;;;5049511;28;20025;-75
2021/04/01 01:48:57;;;;;;;16.45;9.55;;;11.70;59.70;;;;;;5025103;28;20546;-75
2021/04/01 01:51:23;;;;;;;16.85;8.70;;;11.70;59.10;;;;;;5033768;28;20381;-75
2021/04/01 01:53:50;;;;;;;19.48;9.43;;;11.70;58.70;;;;;;5030575;28;20029;-75
2021/04/01 01:56:19;;;;;;;15.15;9.38;;;11.60;59.00;;;;;;5019335;28;20036;-75
2021/04/01 01:58:47;;;;;;;19.80;9.38;;;11.50;60.00;;;;;;5039932;28;20033;-76
2021/04/01 02:01:12;;;;;;;10.52;6.20;;;11.60;59.50;;;;;;5052514;28;20421;-75
2021/04/01 02:03:38;;;;;;;11.38;6.65;;;11.60;59.10;;;;;;5046416;28;20029;-75
2021/04/01 02:06:05;;;;;;;11.10;6.15;;;11.70;59.00;;;;;;5048619;28;20036;-75
2021/04/01 02:08:30;;;;;;;12.63;6.50;;;11.80;58.30;;;;;;5046432;28;20151;-75
2021/04/01 02:10:56;;;;;;;11.40;7.03;;;11.90;58.10;;;;;;5024731;28;20187;-78
2021/04/01 02:13:22;;;;;;;7.47;5.50;;;11.90;58.00;;;;;;5028213;28;20029;-78
2021/04/01 02:15:49;;;;;;;12.20;6.15;;;11.80;58.00;;;;;;5031755;28;20039;-78
2021/04/01 02:18:16;;;;;;;14.18;7.45;;;11.60;58.60;;;;;;5007064;28;20493;-78
2021/04/01 02:20:44;;;;;;;18.75;9.20;;;11.60;58.40;;;;;;5024870;28;20041;-78
2021/04/01 02:23:13;;;;;;;8.40;5.65;;;11.50;59.40;;;;;;5003943;28;20041;-78
2021/04/01 02:25:39;;;;;;;10.18;6.88;;;11.50;59.10;;;;;;5051386;28;20501;-78
2021/04/01 02:28:05;;;;;;;10.77;6.10;;;11.60;58.80;;;;;;5037699;28;20119;-78
2021/04/01 02:30:32;;;;;;;13.25;7.13;;;11.70;58.80;;;;;;5011211;28;20041;-78
2021/04/01 02:32:57;;;;;;;13.63;7.70;;;11.80;59.60;;;;;;5029675;28;20029;-78
2021/04/01 02:35:23;;;;;;;14.50;8.98;;;11.80;59.50;;;;;;5015188;28;20028;-77
2021/04/01 02:37:49;;;;;;;10.65;6.07;;;11.90;59.90;;;;;;5037835;28;20040;-78
2021/04/01 02:40:14;;;;;;;15.23;8.90;;;11.70;58.90;;;;;;5035070;28;20063;-76
2021/04/01 02:42:40;;;;;;;16.60;9.48;;;11.70;59.60;;;;;;5020538;28;20028;-76
2021/04/01 02:45:07;;;;;;;20.00;10.75;;;11.60;59.60;;;;;;5023588;28;20236;-76
2021/04/01 02:47:33;;;;;;;16.77;8.75;;;11.70;59.50;;;;;;5019237;28;20084;-76
2021/04/01 02:49:58;;;;;;;19.17;9.68;;;11.70;59.60;;;;;;5024412;28;20041;-76
2021/04/01 02:52:24;;;;;;;17.45;8.95;;;11.60;59.20;;;;;;5006163;28;20079;-76
2021/04/01 02:54:49;;;;;;;18.85;10.40;;;11.50;59.90;;;;;;5029441;28;20036;-76
2021/04/01 02:57:15;;;;;;;16.10;10.02;;;11.30;60.40;;;;;;5032014;28;20045;-76
2021/04/01 02:59:41;;;;;;;19.10;9.52;;;11.30;59.90;;;;;;5020493;28;20042;-76
2021/04/01 03:02:08;;;;;;;18.33;10.52;;;11.30;60.10;;;;;;5022390;28;20520;-76
2021/04/01 03:04:34;;;;;;;19.65;9.73;;;11.20;60.00;;;;;;5035658;28;20041;-76
2021/04/01 03:07:00;;;;;;;13.63;8.93;;;11.10;60.30;;;;;;5022347;28;20037;-76
2021/04/01 03:09:25;;;;;;;22.02;10.25;;;11.20;60.30;;;;;;5003440;28;20029;-76
2021/04/01 03:11:51;;;;;;;19.38;10.18;;;11.10;59.90;;;;;;5030312;28;20078;-76
2021/04/01 03:14:16;;;;;;;18.52;11.60;;;11.20;60.00;;;;;;5001721;28;20156;-76
2021/04/01 03:16:42;;;;;;;19.50;10.95;;;11.10;61.30;;;;;;5026580;28;20094;-76
2021/04/01 03:19:07;;;;;;;9.68;6.85;;;11.00;62.60;;;;;;5048244;28;20656;-76
2021/04/01 03:21:33;;;;;;;14.15;8.90;;;11.10;59.70;;;;;;5050003;28;20026;-76
2021/04/01 03:23:58;;;;;;;19.13;9.10;;;11.20;61.20;;;;;;5022078;28;20033;-76
2021/04/01 03:26:24;;;;;;;16.90;10.52;;;11.40;61.80;;;;;;5051151;28;20051;-76
2021/04/01 03:28:50;;;;;;;18.00;9.88;;;11.40;60.20;;;;;;5018173;28;20393;-76
2021/04/01 03:31:15;;;;;;;16.15;11.23;;;11.00;61.60;;;;;;5051752;28;20046;-76
2021/04/01 03:33:41;;;;;;;18.10;8.73;;;11.00;62.40;;;;;;5007728;28;20116;-76
2021/04/01 03:36:06;;;;;;;18.73;9.82;;;11.20;60.80;;;;;;5007129;28;20146;-76
2021/04/01 03:38:32;;;;;;;19.05;10.30;;;11.30;61.60;;;;;;5046954;28;20039;-76
2021/04/01 03:40:58;;;;;;;19.55;11.98;;;11.40;61.40;;;;;;5040162;28;20086;-76
2021/04/01 03:43:25;;;;;;;16.08;9.38;;;11.40;61.00;;;;;;5017249;28;20031;-76
2021/04/01 03:45:51;;;;;;;13.57;9.43;;;11.40;60.70;;;;;;5045146;28;20477;-76
2021/04/01 03:48:17;;;;;;;15.25;9.15;;;11.40;60.90;;;;;;5044792;28;20112;-76
2021/04/01 03:50:42;;;;;;;25.20;11.15;;;11.60;62.00;;;;;;5038257;28;20504;-76
2021/04/01 03:53:08;;;;;;;28.27;12.90;;;11.50;60.30;;;;;;5035811;28;20044;-76
2021/04/01 03:55:38;;;;;;;17.95;10.73;;;11.30;60.60;;;;;;5014099;28;20033;-76
2021/04/01 04:00:35;;;;;;;25.73;13.63;;;11.10;61.70;;;;;;5019210;28;20524;-76
2021/04/01 04:03:34;;;;;;;18.95;10.90;;;11.10;61.50;;;;;;5029779;28;20453;-76
2021/04/01 04:06:15;;;;;;;20.95;11.05;;;11.30;61.90;;;;;;5036231;28;20033;-76
2021/04/01 04:08:55;;;;;;;21.30;10.50;;;11.40;62.30;;;;;;5018665;28;20057;-76
2021/04/01 04:11:29;;;;;;;22.00;11.90;;;11.50;62.30;;;;;;5014561;28;20492;-76
2021/04/01 04:14:12;;;;;;;18.15;10.15;;;11.40;60.80;;;;;;5029443;28;20112;-76
2021/04/01 04:16:38;;;;;;;23.58;12.77;;;11.30;60.80;;;;;;5021603;28;20033;-76
2021/04/01 04:19:04;;;;;;;22.27;12.02;;;11.20;60.70;;;;;;5052393;28;20408;-76
2021/04/01 04:21:30;;;;;;;28.42;14.13;;;11.10;61.10;;;;;;5018084;28;20496;-76
2021/04/01 04:23:55;;;;;;;16.45;10.45;;;11.10;61.30;;;;;;5034348;28;20029;-76
2021/04/01 04:26:22;;;;;;;24.65;13.70;;;11.20;61.10;;;;;;5052431;28;20485;-76
2021/04/01 04:28:48;;;;;;;25.90;13.82;;;11.30;61.50;;;;;;5049347;28;20393;-76
2021/04/01 04:31:13;;;;;;;17.73;10.10;;;11.30;61.90;;;;;;5018315;28;20037;-76
2021/04/01 04:33:39;;;;;;;23.02;11.52;;;11.30;61.50;;;;;;5007437;28;20476;-76
2021/04/01 04:36:05;;;;;;;22.27;12.88;;;11.30;61.20;;;;;;5022824;28;20028;-76
2021/04/01 04:38:31;;;;;;;24.35;12.25;;;11.20;61.20;;;;;;5038667;28;20029;-76
2021/04/01 04:40:57;;;;;;;18.17;11.25;;;11.10;61.00;;;;;;5048598;28;20545;-76
2021/04/01 04:43:27;;;;;;;24.60;13.20;;;11.20;61.60;;;;;;5034272;28;20076;-76
2021/04/01 04:45:53;;;;;;;29.13;14.75;;;11.20;61.50;;;;;;5027538;28;20037;-76
2021/04/01 04:48:19;;;;;;;23.85;12.07;;;11.20;62.00;;;;;;5030955;28;20044;-76
2021/04/01 04:50:44;;;;;;;24.02;13.40;;;11.20;62.80;;;;;;5018125;28;20087;-76
2021/04/01 04:53:10;;;;;;;19.02;11.32;;;11.10;61.40;;;;;;5017477;28;20415;-76
2021/04/01 04:55:36;;;;;;;28.33;15.35;;;11.10;62.20;;;;;;5044945;28;20040;-76
2021/04/01 05:05:39;;;;;;;35.78;16.92;;;10.80;61.70;;;;;;5042059;28;20032;-76
2021/04/01 05:08:05;;;;;;;34.28;17.45;;;10.70;62.10;;;;;;5054777;28;20041;-76
2021/04/01 05:10:31;;;;;;;37.72;20.08;;;10.70;61.80;;;;;;5034522;28;20036;-76
2021/04/01 05:13:14;;;;;;;38.25;17.38;;;10.60;62.60;;;;;;5038188;28;20130;-76
2021/04/01 05:15:46;;;;;;;31.50;17.08;;;10.40;63.50;;;;;;5037628;28;20033;-76
2021/04/01 05:18:22;;;;;;;20.50;12.13;;;10.40;64.40;;;;;;5025392;28;20048;-76
2021/04/01 05:20:48;;;;;;;26.58;13.23;;;10.70;64.10;;;;;;5036492;28;20559;-76
2021/04/01 05:25:59;;;;;;;23.70;13.45;;;10.80;64.20;;;;;;5028572;28;20085;-76
2021/04/01 05:28:31;;;;;;;22.30;13.75;;;10.80;64.90;;;;;;5035898;28;20106;-76
2021/04/01 05:30:58;;;;;;;30.35;15.95;;;10.80;64.00;;;;;;5020274;28;20036;-76
2021/04/01 05:33:24;;;;;;;21.17;12.25;;;10.70;64.10;;;;;;5046331;28;20108;-76
2021/04/01 05:35:50;;;;;;;18.63;11.02;;;10.70;63.50;;;;;;5043905;28;20060;-76
2021/04/01 05:38:15;;;;;;;28.13;16.73;;;10.70;63.00;;;;;;5015578;28;20147;-76
2021/04/01 05:40:41;;;;;;;31.33;18.38;;;10.60;62.80;;;;;;5015642;28;20331;-76
2021/04/01 05:43:10;;;;;;;26.65;14.45;;;10.60;63.50;;;;;;5023879;28;20060;-76
2021/04/01 05:45:49;;;;;;;22.08;10.35;;;10.50;63.70;;;;;;5008729;28;20102;-76
2021/04/01 05:48:19;;;;;;;17.23;9.98;;;10.70;63.70;;;;;;5027227;28;20036;-76
2021/04/01 05:51:08;;;;;;;24.13;13.85;;;10.80;63.10;;;;;;5022444;28;20404;-76
2021/04/01 05:54:24;;;;;;;26.10;13.93;;;10.70;63.10;;;;;;5020850;28;20433;-76
2021/04/01 06:06:54;;;;;;;22.80;13.98;;;10.80;64.60;;;;;;5024095;28;20104;-77
2021/04/01 06:09:27;;;;;;;23.67;12.90;;;10.90;66.00;;;;;;5038902;28;20524;-77
2021/04/01 06:11:54;;;;;;;20.27;12.27;;;10.90;65.70;;;;;;5032455;28;20032;-76
2021/04/01 06:14:56;;;;;;;38.10;17.48;;;10.90;65.70;;;;;;5026828;28;20502;-76
2021/04/01 06:17:24;;;;;;;30.13;13.88;;;10.90;65.90;;;;;;5039911;28;20033;-77
2021/04/01 06:19:49;;;;;;;20.00;12.30;;;11.00;66.30;;;;;;5008938;28;20485;-76
2021/04/01 06:22:17;;;;;;;31.42;14.68;;;11.00;66.40;;;;;;5040054;28;20137;-76
2021/04/01 06:24:43;;;;;;;24.52;12.98;;;11.10;66.10;;;;;;5052999;28;20123;-77
2021/04/01 06:29:37;;;;;;;21.30;12.60;;;11.10;66.40;;;;;;5018730;28;20485;-76
2021/04/01 06:32:03;;;;;;;26.20;13.63;;;11.20;65.60;;;;;;5031128;28;20033;-76
2021/04/01 06:34:34;;;;;;;30.92;17.55;;;11.50;66.80;;;;;;5019964;28;20047;-76
2021/04/01 06:37:00;;;;;;;32.40;18.08;;;11.30;65.10;;;;;;5018804;28;20032;-76
2021/04/01 06:39:26;;;;;;;25.15;13.82;;;11.30;66.20;;;;;;5007351;28;20075;-76
2021/04/01 06:42:02;;;;;;;33.30;18.10;;;11.40;66.20;;;;;;5041993;28;20055;-76
2021/04/01 06:44:28;;;;;;;38.08;18.27;;;11.60;68.00;;;;;;5018908;28;20517;-76
2021/04/01 06:47:00;;;;;;;27.35;14.38;;;11.60;67.00;;;;;;5046119;28;20033;-76
2021/04/01 06:52:05;;;;;;;36.30;19.48;;;11.80;67.50;;;;;;5025754;28;20047;-76
2021/04/01 06:54:44;;;;;;;38.60;18.92;;;12.00;68.40;;;;;;5018446;28;20492;-76
2021/04/01 06:57:31;;;;;;;39.47;20.65;;;12.00;68.80;;;;;;5012156;28;20029;-76
2021/04/01 07:02:38;;;;;;;40.15;21.90;;;12.20;69.00;;;;;;5036885;28;20045;-76
2021/04/01 07:05:14;;;;;;;45.97;22.58;;;12.40;69.80;;;;;;5041068;28;20390;-76
2021/04/01 07:07:45;;;;;;;42.05;22.80;;;12.40;69.60;;;;;;5040280;28;20594;-76
2021/04/01 07:10:22;;;;;;;22.88;12.57;;;12.60;69.70;;;;;;5024124;28;20124;-76
2021/04/01 07:12:49;;;;;;;33.90;15.80;;;12.80;67.50;;;;;;5010855;28;20042;-76
2021/04/01 07:15:24;;;;;;;26.40;15.23;;;13.00;66.50;;;;;;5023081;28;20029;-76
2021/04/01 07:17:55;;;;;;;45.55;22.20;;;13.20;66.40;;;;;;5022855;28;20040;-77
2021/04/01 07:44:46;;;;;;;38.17;17.33;;;14.30;62.20;;;;;;5028781;28;20086;-78
2021/04/01 07:46:34;;;;;;;29.30;14.10;;;15.00;61.50;;;;;;5050354;28;20036;-77
2021/04/01 07:48:44;;;;;;;29.00;15.20;;;15.20;62.60;;;;;;5014955;28;20028;-77
2021/04/01 07:53:58;;;;;;;50.22;21.23;;;15.60;60.60;;;;;;5022743;28;20434;-77
2021/04/01 07:56:30;;;;;;;28.63;13.25;;;15.80;59.50;;;;;;5052129;28;20036;-77
2021/04/01 08:02:04;;;;;;;42.60;19.05;;;16.00;59.60;;;;;;5035590;28;20478;-77
2021/04/01 08:04:31;;;;;;;67.50;29.33;;;16.50;59.10;;;;;;5008694;28;20496;-77
2021/04/01 08:07:13;;;;;;;77.75;31.83;;;16.00;60.30;;;;;;5050036;28;20477;-77
2021/04/01 08:09:41;;;;;;;68.88;30.42;;;15.60;62.40;;;;;;5036662;28;20037;-77
2021/04/01 08:12:31;;;;;;;67.15;30.33;;;15.50;64.10;;;;;;5021492;28;21131;-77
2021/04/01 08:15:06;;;;;;;37.90;17.85;;;15.50;61.90;;;;;;5020554;28;20461;-77
2021/04/01 08:17:43;;;;;;;77.57;34.45;;;15.90;61.00;;;;;;5062118;28;20133;-77
2021/04/01 08:20:11;;;;;;;85.40;33.97;;;16.00;61.50;;;;;;5008801;28;20040;-77
2021/04/01 08:22:41;;;;;;;77.82;32.25;;;16.10;59.90;;;;;;5032160;28;20055;-77
2021/04/01 08:25:08;;;;;;;83.43;33.13;;;16.10;60.00;;;;;;5042386;28;20612;-77
2021/04/01 08:27:50;;;;;;;74.85;28.90;;;16.20;60.80;;;;;;5009002;28;20119;-77
2021/04/01 08:31:15;;;;;;;81.05;33.33;;;16.70;59.30;;;;;;5017287;28;20091;-77
2021/04/01 08:33:15;;;;;;;78.00;31.08;;;17.00;58.90;;;;;;5026552;28;20043;-77
2021/04/01 08:35:41;;;;;;;81.22;33.20;;;16.90;57.80;;;;;;5037649;28;20548;-77
2021/04/01 08:38:14;;;;;;;84.40;33.55;;;16.50;58.50;;;;;;5015436;28;20029;-77
2021/04/01 08:40:40;;;;;;;84.00;32.85;;;16.40;57.90;;;;;;5010404;28;20433;-77
2021/04/01 08:43:35;;;;;;;85.65;32.60;;;17.00;57.30;;;;;;5021941;28;20037;-77
2021/04/01 08:46:24;;;;;;;84.68;34.08;;;17.10;57.00;;;;;;5038299;28;20041;-77
2021/04/01 08:49:20;;;;;;;82.65;34.58;;;16.90;56.50;;;;;;5052494;28;20040;-77
2021/04/01 08:51:49;;;;;;;73.95;28.75;;;16.90;56.10;;;;;;5024309;28;20047;-77
2021/04/01 08:54:45;;;;;;;81.18;34.80;;;17.20;55.20;;;;;;5046592;28;20083;-77
2021/04/01 08:57:29;;;;;;;51.08;23.02;;;17.50;55.20;;;;;;5028867;28;20044;-77
2021/04/01 09:00:13;;;;;;;81.28;31.20;;;17.70;56.00;;;;;;5053611;28;20301;-77
2021/04/01 09:02:45;;;;;;;74.50;30.35;;;18.80;54.30;;;;;;5038008;28;20036;-77
2021/04/01 09:05:11;;;;;;;70.47;28.75;;;18.30;55.20;;;;;;5022107;28;20506;-77
2021/04/01 09:07:47;;;;;;;75.07;31.33;;;18.10;54.40;;;;;;5035928;28;20037;-77
2021/04/01 09:10:21;;;;;;;87.45;32.17;;;18.60;55.50;;;;;;5016928;28;20060;-77
2021/04/01 09:13:02;;;;;;;78.25;31.77;;;19.20;55.60;;;;;;5018649;28;21401;-77
2021/04/01 09:15:43;;;;;;;65.22;26.58;;;19.20;55.50;;;;;;5028480;28;20115;-77
2021/04/01 09:18:24;;;;;;;79.57;32.83;;;19.10;54.90;;;;;;5018736;28;20075;-77
2021/04/01 09:20:51;;;;;;;86.18;34.30;;;19.40;54.20;;;;;;5012124;28;20392;-77
2021/04/01 09:23:17;;;;;;;86.10;34.25;;;19.00;53.40;;;;;;5028108;28;20025;-77
2021/04/01 09:25:46;;;;;;;70.90;26.55;;;18.60;53.00;;;;;;5007424;28;20044;-77
2021/04/01 09:28:13;;;;;;;82.95;32.05;;;19.00;54.20;;;;;;5044665;28;20110;-78
2021/04/01 09:30:39;;;;;;;85.72;33.13;;;19.00;53.10;;;;;;5006596;28;20287;-77
2021/04/01 09:33:09;;;;;;;82.07;33.92;;;18.90;53.00;;;;;;5014608;28;20136;-77
2021/04/01 09:35:35;;;;;;;79.00;34.45;;;19.20;53.80;;;;;;5018027;28;20725;-77
2021/04/01 09:38:04;;;;;;;85.07;33.78;;;19.10;53.40;;;;;;5016613;28;20036;-77
2021/04/01 09:40:34;;;;;;;80.15;32.85;;;18.90;53.40;;;;;;5006173;28;20041;-77
2021/04/01 09:43:10;;;;;;;74.97;28.65;;;19.00;52.20;;;;;;5050571;28;20485;-77
2021/04/01 09:45:36;;;;;;;79.65;32.92;;;19.40;53.70;;;;;;5017454;28;20029;-77
2021/04/01 09:48:03;;;;;;;61.72;24.20;;;20.50;52.50;;;;;;5013440;28;20037;-77
2021/04/01 09:50:30;;;;;;;69.35;27.40;;;21.10;52.30;;;;;;5051672;28;20033;-77
2021/04/01 09:53:00;;;;;;;72.63;29.60;;;20.50;53.20;;;;;;5035916;28;20063;-77
2021/04/01 09:55:39;;;;;;;64.18;26.00;;;20.70;52.50;;;;;;5006643;28;20034;-77
2021/04/01 09:58:15;;;;;;;65.40;27.52;;;21.00;52.70;;;;;;5024146;28;20032;-76
2021/04/01 10:03:27;;;;;;;65.38;27.45;;;20.60;52.40;;;;;;5024545;28;20145;-77
2021/04/01 10:05:53;;;;;;;67.07;26.52;;;20.00;49.50;;;;;;5048229;28;20056;-76
2021/04/01 10:08:26;;;;;;;65.88;26.05;;;19.80;50.60;;;;;;5037005;28;20133;-76
2021/04/01 10:10:53;;;;;;;55.40;21.33;;;20.60;52.10;;;;;;5011648;28;20112;-77
2021/04/01 10:13:21;;;;;;;60.58;24.40;;;21.50;50.90;;;;;;5034183;28;20029;-77
2021/04/01 10:15:47;;;;;;;70.45;28.13;;;21.90;50.50;;;;;;5023353;28;20071;-77
2021/04/01 10:18:34;;;;;;;58.30;23.58;;;21.60;50.90;;;;;;5019203;28;20151;-77
2021/04/01 10:21:12;;;;;;;55.55;23.85;;;21.70;51.20;;;;;;5046756;28;20032;-76
2021/04/01 10:23:47;;;;;;;68.03;28.63;;;22.40;51.00;;;;;;5026442;28;20117;-77
2021/04/01 10:26:13;;;;;;;72.88;31.67;;;22.00;51.60;;;;;;5028233;28;20044;-77
2021/04/01 10:29:01;;;;;;;74.10;30.85;;;21.30;48.40;;;;;;5024116;28;20580;-76
2021/04/01 10:31:26;;;;;;;64.85;26.17;;;20.70;49.20;;;;;;5013854;28;20360;-76
2021/04/01 10:33:53;;;;;;;70.20;28.35;;;21.00;51.00;;;;;;5020868;28;20031;-77
2021/04/01 10:36:23;;;;;;;71.25;27.55;;;21.50;48.20;;;;;;5027111;28;20029;-77
2021/04/01 10:38:48;;;;;;;68.25;31.70;;;21.00;47.40;;;;;;5050666;28;20037;-76
2021/04/01 10:41:18;;;;;;;66.90;27.73;;;20.80;46.40;;;;;;5018813;28;20029;-77
2021/04/01 10:43:44;;;;;;;67.65;27.70;;;20.70;47.00;;;;;;5012422;28;20110;-76
2021/04/01 10:46:19;;;;;;;77.00;30.52;;;20.70;47.60;;;;;;5039995;28;20039;-76
2021/04/01 10:48:50;;;;;;;71.90;32.10;;;20.70;47.30;;;;;;5026842;28;20138;-77
2021/04/01 10:51:17;;;;;;;78.00;30.52;;;20.70;47.50;;;;;;5015672;28;20104;-77
2021/04/01 10:53:43;;;;;;;74.20;31.15;;;20.70;47.10;;;;;;5007319;28;20519;-76
2021/04/01 10:56:10;;;;;;;75.03;29.92;;;20.80;46.90;;;;;;5008396;28;20094;-77
2021/04/01 10:58:46;;;;;;;69.85;28.88;;;20.90;48.00;;;;;;5004650;28;20043;-77
2021/04/01 11:01:11;;;;;;;79.35;33.85;;;21.90;50.20;;;;;;5026251;28;20041;-77
2021/04/01 11:03:45;;;;;;;75.28;32.42;;;21.10;47.10;;;;;;5016729;28;20033;-76
2021/04/01 11:06:12;;;;;;;78.78;32.08;;;21.10;48.50;;;;;;5022614;28;20040;-76
2021/04/01 11:08:39;;;;;;;80.28;33.10;;;21.00;48.40;;;;;;5011701;28;20037;-76
2021/04/01 11:11:05;;;;;;;73.70;32.10;;;21.10;48.40;;;;;;5026269;28;20043;-76
2021/04/01 11:13:34;;;;;;;72.15;32.22;;;21.10;47.90;;;;;;5041080;28;20111;-77
2021/04/01 11:16:06;;;;;;;70.80;35.25;;;21.10;47.40;;;;;;5032312;28;20492;-78
2021/04/01 11:18:33;;;;;;;68.20;30.70;;;21.10;46.50;;;;;;5033573;28;20028;-75
2021/04/01 11:20:59;;;;;;;70.82;32.65;;;21.00;46.90;;;;;;5028736;28;20032;-77
2021/04/01 11:23:26;;;;;;;75.53;31.45;;;21.00;46.50;;;;;;5018454;28;20037;-76
2021/04/01 11:25:53;;;;;;;78.22;29.80;;;21.10;46.70;;;;;;5024420;28;20029;-78
2021/04/01 11:28:19;;;;;;;67.68;28.58;;;21.00;46.10;;;;;;5030791;28;20029;-76
2021/04/01 11:30:51;;;;;;;61.40;26.48;;;21.00;46.50;;;;;;5036272;28;20659;-78
2021/04/01 11:33:20;;;;;;;75.38;28.20;;;21.10;46.10;;;;;;5012999;28;20481;-78
2021/04/01 11:36:04;;;;;;;66.20;28.17;;;21.00;45.90;;;;;;5032663;28;21007;-78
2021/04/01 11:38:37;;;;;;;57.70;27.05;;;21.00;46.60;;;;;;5029373;28;20033;-78
2021/04/01 11:41:03;;;;;;;72.00;34.90;;;21.00;46.20;;;;;;5033775;28;20043;-78
2021/04/01 11:43:33;;;;;;;76.78;34.55;;;21.00;46.30;;;;;;5011616;28;20033;-78
2021/04/01 11:46:10;;;;;;;67.00;31.23;;;21.00;46.80;;;;;;5027101;28;20041;-75
2021/04/01 11:48:37;;;;;;;58.22;28.20;;;21.00;46.50;;;;;;5003194;28;20453;-78
2021/04/01 11:51:02;;;;;;;60.13;31.02;;;21.00;47.00;;;;;;5027873;28;20084;-76
2021/04/01 11:53:28;;;;;;;62.47;31.05;;;21.00;45.90;;;;;;5019247;28;20167;-78
2021/04/01 11:55:53;;;;;;;65.00;35.17;;;21.10;46.90;;;;;;5031206;28;20031;-78
2021/04/01 11:58:21;;;;;;;67.90;36.08;;;21.00;46.00;;;;;;5040946;28;20378;-75
2021/04/01 12:00:47;;;;;;;69.55;35.92;;;21.10;46.60;;;;;;5004572;28;20044;-78
2021/04/01 12:03:26;;;;;;;73.18;36.55;;;21.00;47.30;;;;;;5037600;28;20036;-78
2021/04/01 12:05:51;;;;;;;72.75;39.90;;;21.10;47.90;;;;;;5039388;28;20058;-78
2021/04/01 12:08:18;;;;;;;72.43;37.88;;;21.10;48.20;;;;;;5028667;28;20482;-76
2021/04/01 12:10:53;;;;;;;71.75;43.53;;;21.30;49.10;;;;;;5026572;28;20041;-76
2021/04/01 12:13:21;;;;;;;58.28;32.70;;;21.60;48.10;;;;;;5042200;28;20045;-76
2021/04/01 12:15:47;;;;;;;74.95;39.83;;;21.70;50.10;;;;;;5032951;28;20048;-76
2021/04/01 12:18:12;;;;;;;75.05;38.60;;;21.60;47.90;;;;;;5047068;28;20044;-76
2021/04/01 12:20:38;;;;;;;72.47;39.15;;;21.60;48.30;;;;;;5013958;28;20060;-76
2021/04/01 12:23:13;;;;;;;83.75;45.10;;;21.60;48.30;;;;;;5001487;28;20044;-76
2021/04/01 12:25:39;;;;;;;86.05;46.88;;;21.50;48.50;;;;;;5012771;28;20099;-77
2021/04/01 12:28:05;;;;;;;82.13;45.10;;;21.40;48.80;;;;;;5033561;28;20044;-74
2021/04/01 12:30:32;;;;;;;77.45;41.35;;;21.30;48.90;;;;;;5024177;28;20060;-75
2021/04/01 12:33:11;;;;;;;83.35;44.58;;;21.40;49.90;;;;;;5050066;28;20040;-74
2021/04/01 12:35:47;;;;;;;84.63;49.00;;;22.20;49.40;;;;;;5023229;28;20039;-74
2021/04/01 12:38:14;;;;;;;89.63;53.50;;;21.90;48.50;;;;;;5033697;28;20424;-74
2021/04/01 12:40:40;;;;;;;88.72;50.22;;;21.60;48.80;;;;;;5027845;28;20041;-75
2021/04/01 12:43:07;;;;;;;90.07;56.35;;;21.50;48.80;;;;;;5037378;28;20506;-74
2021/04/01 12:45:33;;;;;;;91.22;52.33;;;21.50;48.60;;;;;;5021554;28;20048;-74
2021/04/01 12:48:06;;;;;;;90.75;52.20;;;21.40;48.50;;;;;;5007470;28;20388;-74
2021/04/01 12:50:32;;;;;;;77.60;40.15;;;21.30;48.40;;;;;;5016416;28;20111;-74
2021/04/01 12:52:58;;;;;;;86.07;51.08;;;21.60;49.20;;;;;;5026741;28;20033;-75
2021/04/01 12:55:40;;;;;;;86.32;49.13;;;21.50;48.30;;;;;;5040069;28;20044;-74
2021/04/01 12:58:15;;;;;;;85.15;52.60;;;21.40;48.10;;;;;;5020973;28;20060;-74
2021/04/01 13:00:47;;;;;;;86.97;50.03;;;21.30;47.80;;;;;;5028565;28;20067;-74
2021/04/01 13:03:13;;;;;;;81.70;47.05;;;21.20;47.60;;;;;;5044903;28;20116;-74
2021/04/01 13:05:42;;;;;;;86.50;49.13;;;21.20;47.90;;;;;;5045973;28;20553;-74
2021/04/01 13:10:43;;;;;;;73.38;44.00;;;21.20;47.60;;;;;;5042175;28;20109;-74
2021/04/01 13:13:09;;;;;;;74.22;37.10;;;21.00;47.00;;;;;;5027901;28;20076;-75
2021/04/01 13:15:35;;;;;;;65.88;35.17;;;21.10;47.90;;;;;;5044989;28;20740;-74
2021/04/01 13:18:00;;;;;;;59.83;32.42;;;21.10;48.00;;;;;;5033482;28;20395;-74
2021/04/01 13:20:26;;;;;;;53.30;29.10;;;21.10;48.40;;;;;;5025818;28;20040;-74
2021/04/01 13:25:20;;;;;;;48.45;26.05;;;21.10;47.50;;;;;;5024378;28;20110;-74
2021/04/01 13:27:46;;;;;;;41.78;24.45;;;21.00;47.70;;;;;;5024035;28;20033;-75
2021/04/01 13:30:12;;;;;;;34.72;21.02;;;21.00;47.30;;;;;;5007179;28;576227;-74
2021/04/01 13:32:51;;;;;;;36.10;20.27;;;21.00;47.00;;;;;;5012024;28;20537;-75
2021/04/01 13:35:20;;;;;;;35.08;18.00;;;21.00;47.00;;;;;;5012126;28;20048;-74
2021/04/01 13:40:33;;;;;;;28.70;15.50;;;20.90;46.60;;;;;;5037382;28;20044;-76
2021/04/01 13:43:02;;;;;;;26.90;15.05;;;20.90;46.40;;;;;;5033581;28;20459;-74
2021/04/01 13:45:28;;;;;;;29.48;14.70;;;20.80;46.60;;;;;;5004010;28;20063;-75
2021/04/01 13:48:01;;;;;;;22.15;13.05;;;20.80;46.80;;;;;;5023694;28;20036;-77
2021/04/01 13:50:29;;;;;;;28.33;13.48;;;20.80;46.10;;;;;;5028853;28;20086;-76
2021/04/01 13:55:42;;;;;;;19.88;12.35;;;20.70;46.10;;;;;;5025219;28;20049;-75